Time;durP1;ratioP1;P1;durP2;ratioP2;P2;SDS_P1;SDS_P2;PMS_P1;PMS_P2;Temp;Humidity;BMP_temperature;BMP_pressure;BME280_temperature;BME280_humidity;BME280_pressure;Samples;Min_cycle;Max_cycle;Signal;HPM_P1;HPM_P2
2022/01/01 00:01:36;;;;;;;9.47;5.20;;;16.80;61.00;;;;;;5059055;28;20886;-87
2022/01/01 00:04:04;;;;;;;7.77;5.70;;;16.90;60.20;;;;;;5074941;28;21224;-86
2022/01/01 00:06:31;;;;;;;4.90;4.20;;;16.90;60.10;;;;;;5092044;28;21202;-87
2022/01/01 00:08:58;;;;;;;5.00;4.50;;;16.80;60.20;;;;;;5076553;28;20451;-86
2022/01/01 00:11:25;;;;;;;5.73;3.87;;;16.80;60.30;;;;;;5078320;28;20459;-87
2022/01/01 00:13:52;;;;;;;6.37;4.67;;;16.70;60.40;;;;;;5093189;27;20478;-85
2022/01/01 00:16:19;;;;;;;4.60;4.17;;;16.70;60.30;;;;;;5094261;28;20527;-88
2022/01/01 00:18:46;;;;;;;8.40;4.47;;;16.70;60.60;;;;;;5058034;28;20454;-86
2022/01/01 00:21:14;;;;;;;8.97;5.47;;;16.70;60.40;;;;;;5077960;28;20435;-87
2022/01/01 00:23:41;;;;;;;4.90;4.50;;;16.70;60.20;;;;;;5055732;28;20478;-87
2022/01/01 00:26:08;;;;;;;7.83;5.40;;;16.80;60.00;;;;;;5072184;28;20460;-87
2022/01/01 00:28:35;;;;;;;6.73;5.17;;;16.90;60.00;;;;;;5095740;28;20465;-86
2022/01/01 00:31:02;;;;;;;13.20;5.67;;;16.90;59.80;;;;;;5093197;28;20456;-86
2022/01/01 00:33:30;;;;;;;6.00;5.40;;;16.80;59.80;;;;;;5091065;28;20826;-87
2022/01/01 00:35:57;;;;;;;8.67;6.20;;;16.80;59.90;;;;;;5073185;28;21015;-86
2022/01/01 00:38:26;;;;;;;7.60;6.33;;;16.80;59.90;;;;;;5065505;28;20515;-87
2022/01/01 00:40:53;;;;;;;8.00;6.00;;;16.80;59.80;;;;;;5082096;28;20671;-86
2022/01/01 00:43:20;;;;;;;7.70;5.67;;;16.80;60.00;;;;;;5092251;28;20501;-87
2022/01/01 00:45:47;;;;;;;6.50;5.10;;;16.80;59.90;;;;;;5089053;28;20467;-87
2022/01/01 00:48:14;;;;;;;6.47;4.40;;;16.70;59.90;;;;;;5075619;28;20455;-87
2022/01/01 00:50:41;;;;;;;11.20;4.67;;;16.70;59.90;;;;;;5056526;28;20530;-86
2022/01/01 00:53:08;;;;;;;5.70;4.67;;;16.70;60.00;;;;;;5091348;28;21245;-86
2022/01/01 00:55:36;;;;;;;5.03;3.90;;;16.70;59.90;;;;;;5093385;28;20479;-87
2022/01/01 00:58:03;;;;;;;6.27;4.40;;;16.60;60.10;;;;;;5092208;28;20451;-87
2022/01/01 01:00:31;;;;;;;5.70;4.70;;;16.50;60.10;;;;;;5093316;28;20463;-88
2022/01/01 01:02:58;;;;;;;10.50;6.00;;;16.60;60.10;;;;;;5084308;28;20463;-87
2022/01/01 01:05:25;;;;;;;4.20;3.53;;;16.70;59.90;;;;;;5092077;28;20534;-89
2022/01/01 01:07:52;;;;;;;13.13;6.40;;;16.60;59.80;;;;;;5074806;28;20508;-87
2022/01/01 01:10:19;;;;;;;8.97;5.70;;;16.70;59.90;;;;;;5076283;28;20456;-87
2022/01/01 01:12:48;;;;;;;5.93;4.20;;;16.70;59.70;;;;;;5091728;28;20459;-86
2022/01/01 01:15:18;;;;;;;3.67;3.37;;;16.70;59.60;;;;;;5091571;28;20479;-87
2022/01/01 01:17:46;;;;;;;8.23;5.07;;;16.60;59.70;;;;;;5075415;28;21191;-88
2022/01/01 01:20:14;;;;;;;7.90;5.60;;;16.50;60.00;;;;;;5074792;28;20448;-87
2022/01/01 01:22:41;;;;;;;6.73;5.00;;;16.50;60.30;;;;;;5099978;28;20462;-86
2022/01/01 01:25:09;;;;;;;3.90;3.50;;;16.50;60.20;;;;;;5078334;28;21089;-86
2022/01/01 01:27:36;;;;;;;5.07;4.30;;;16.50;60.30;;;;;;5068259;27;21074;-86
2022/01/01 01:30:06;;;;;;;7.07;4.53;;;16.50;60.20;;;;;;5097525;28;20453;-88
2022/01/01 01:32:33;;;;;;;7.80;3.50;;;16.50;60.00;;;;;;5080397;28;20460;-88
2022/01/01 01:35:00;;;;;;;5.17;3.77;;;16.40;59.90;;;;;;5102125;27;20953;-86
2022/01/01 01:37:28;;;;;;;6.57;4.27;;;16.50;60.00;;;;;;5061703;28;20456;-86
2022/01/01 01:39:55;;;;;;;4.43;4.00;;;16.60;59.80;;;;;;5099493;28;20515;-86
2022/01/01 01:42:24;;;;;;;6.53;4.13;;;16.40;59.90;;;;;;5095935;28;20462;-87
2022/01/01 01:44:53;;;;;;;4.90;4.20;;;16.30;60.50;;;;;;5087298;28;20469;-85
2022/01/01 01:47:28;;;;;;;5.80;3.87;;;16.40;60.30;;;;;;5064680;28;20463;-85
2022/01/01 01:49:56;;;;;;;11.50;3.50;;;16.50;59.90;;;;;;5068979;28;20512;-86
2022/01/01 01:52:24;;;;;;;4.53;3.57;;;16.40;60.10;;;;;;5077361;28;20454;-87
2022/01/01 01:54:52;;;;;;;8.70;4.03;;;16.40;60.20;;;;;;5096699;27;20499;-87
2022/01/01 01:57:20;;;;;;;8.10;4.30;;;16.40;60.10;;;;;;5075876;28;20822;-86
2022/01/01 01:59:47;;;;;;;7.37;3.90;;;16.40;60.10;;;;;;5096813;27;20458;-85
2022/01/01 02:02:14;;;;;;;5.00;3.97;;;16.50;60.00;;;;;;5063697;27;20511;-87
2022/01/01 02:04:42;;;;;;;7.50;4.20;;;16.50;59.80;;;;;;5072535;27;20466;-89
2022/01/01 02:07:10;;;;;;;4.53;4.13;;;16.50;59.80;;;;;;5063607;28;21016;-86
2022/01/01 02:09:39;;;;;;;5.23;3.67;;;16.50;59.90;;;;;;5095406;28;20569;-86
2022/01/01 02:12:08;;;;;;;6.47;4.30;;;16.50;59.70;;;;;;5082486;28;20525;-87
2022/01/01 02:15:04;;;;;;;3.93;3.53;;;16.50;59.80;;;;;;5095108;27;20471;-86
2022/01/01 02:17:31;;;;;;;12.20;4.60;;;16.20;60.10;;;;;;5093470;27;20930;-87
2022/01/01 02:20:06;;;;;;;5.93;4.40;;;16.20;60.60;;;;;;5079719;28;20548;-87
2022/01/01 02:22:37;;;;;;;4.43;3.70;;;16.30;60.30;;;;;;5080719;28;20465;-87
2022/01/01 02:25:06;;;;;;;4.00;3.57;;;16.30;60.40;;;;;;5076081;28;20839;-87
2022/01/01 02:27:33;;;;;;;3.97;3.67;;;16.30;60.20;;;;;;5096020;27;20455;-86
2022/01/01 02:30:00;;;;;;;4.50;3.83;;;16.30;60.50;;;;;;5095346;27;21234;-87
2022/01/01 02:32:27;;;;;;;5.83;4.33;;;16.00;61.20;;;;;;5081421;28;20459;-86
2022/01/01 02:34:54;;;;;;;4.60;4.20;;;15.70;62.10;;;;;;5095000;28;20479;-86
2022/01/01 02:37:22;;;;;;;4.57;3.93;;;15.80;62.40;;;;;;5073424;28;20451;-87
2022/01/01 02:39:50;;;;;;;5.03;3.67;;;15.80;62.30;;;;;;5094134;28;20455;-87
2022/01/01 02:42:20;;;;;;;4.57;4.00;;;15.80;62.30;;;;;;5062790;28;20857;-88
2022/01/01 02:44:47;;;;;;;7.73;5.20;;;15.80;62.40;;;;;;5063501;28;20454;-86
2022/01/01 02:47:14;;;;;;;6.27;4.60;;;15.90;62.20;;;;;;5077851;28;20458;-86
2022/01/01 02:49:41;;;;;;;10.13;5.63;;;15.90;62.00;;;;;;5094039;27;21001;-86
2022/01/01 02:52:08;;;;;;;24.77;11.30;;;15.90;61.60;;;;;;5077008;27;20462;-86
2022/01/01 02:54:36;;;;;;;12.10;6.67;;;15.90;62.00;;;;;;5085606;28;21126;-88
2022/01/01 02:57:03;;;;;;;8.37;5.70;;;16.00;61.50;;;;;;5095165;28;20471;-86
2022/01/01 02:59:30;;;;;;;7.87;5.20;;;16.10;61.20;;;;;;5094056;28;21041;-87
2022/01/01 03:01:57;;;;;;;7.93;5.20;;;16.20;60.80;;;;;;5068324;28;21069;-86
2022/01/01 03:04:24;;;;;;;8.40;4.80;;;16.00;61.10;;;;;;5078203;28;20451;-86
2022/01/01 03:06:54;;;;;;;6.07;4.97;;;16.10;61.00;;;;;;5075662;28;20467;-87
2022/01/01 03:09:22;;;;;;;8.20;5.27;;;16.20;60.40;;;;;;5077800;28;20443;-88
2022/01/01 03:11:51;;;;;;;6.37;4.87;;;15.80;61.20;;;;;;5074809;28;20458;-87
2022/01/01 03:14:18;;;;;;;5.53;4.53;;;15.60;62.00;;;;;;5078339;28;21017;-87
2022/01/01 03:16:45;;;;;;;6.77;4.50;;;15.50;62.40;;;;;;5078653;28;20890;-86
2022/01/01 03:19:12;;;;;;;12.10;5.37;;;15.70;62.00;;;;;;5092760;27;20452;-86
2022/01/01 03:21:39;;;;;;;8.83;5.40;;;15.70;62.30;;;;;;5093992;28;20871;-86
2022/01/01 03:24:08;;;;;;;10.10;5.33;;;15.90;61.40;;;;;;5077718;28;21106;-87
2022/01/01 03:26:35;;;;;;;7.60;5.20;;;16.00;61.10;;;;;;5078002;28;20459;-86
2022/01/01 03:29:04;;;;;;;8.33;5.80;;;16.10;60.70;;;;;;5095264;27;20456;-87
2022/01/01 03:31:31;;;;;;;11.03;5.00;;;16.10;60.20;;;;;;5092231;28;20452;-86
2022/01/01 03:33:58;;;;;;;6.30;5.53;;;16.20;60.10;;;;;;5093913;27;20488;-86
2022/01/01 03:36:25;;;;;;;5.13;4.47;;;16.10;60.00;;;;;;5066889;28;20472;-86
2022/01/01 03:38:52;;;;;;;7.20;4.87;;;16.20;59.80;;;;;;5057818;28;20450;-86
2022/01/01 03:41:19;;;;;;;9.03;5.33;;;16.20;59.70;;;;;;5093113;28;20455;-84
2022/01/01 03:43:46;;;;;;;7.70;5.57;;;16.10;59.80;;;;;;5075246;28;20452;-88
2022/01/01 03:46:15;;;;;;;9.60;4.40;;;16.10;59.90;;;;;;5092572;28;20539;-87
2022/01/01 03:48:42;;;;;;;5.83;4.47;;;15.90;60.10;;;;;;5077193;28;20455;-87
2022/01/01 03:51:08;;;;;;;6.10;4.97;;;15.70;60.70;;;;;;5093607;28;20475;-87
2022/01/01 03:53:36;;;;;;;8.00;5.40;;;15.70;61.30;;;;;;5060151;28;20524;-86
2022/01/01 03:56:03;;;;;;;8.10;4.90;;;15.60;61.40;;;;;;5095535;28;20479;-87
2022/01/01 03:58:30;;;;;;;6.50;4.90;;;15.50;62.00;;;;;;5075420;28;20460;-86
2022/01/01 04:00:57;;;;;;;7.20;4.90;;;15.50;61.80;;;;;;5076134;28;20484;-87
2022/01/01 04:03:25;;;;;;;7.00;4.60;;;15.60;61.50;;;;;;5094641;28;20865;-87
2022/01/01 04:05:52;;;;;;;7.23;5.20;;;15.70;61.10;;;;;;5077332;28;20459;-87
2022/01/01 04:08:19;;;;;;;5.83;4.50;;;15.70;60.80;;;;;;5073118;28;20452;-87
2022/01/01 04:10:46;;;;;;;10.60;6.33;;;15.70;61.00;;;;;;5076850;28;20469;-87
2022/01/01 04:13:13;;;;;;;10.77;6.80;;;15.80;60.80;;;;;;5059781;28;20448;-87
2022/01/01 04:15:41;;;;;;;6.30;5.63;;;15.80;60.60;;;;;;5093857;28;21170;-84
2022/01/01 04:18:11;;;;;;;7.67;5.53;;;15.80;60.60;;;;;;5092496;28;21017;-86
2022/01/01 04:20:39;;;;;;;7.80;5.40;;;15.70;60.60;;;;;;5092146;28;20965;-87
2022/01/01 04:23:08;;;;;;;7.57;5.27;;;15.60;61.20;;;;;;5079818;28;20447;-86
2022/01/01 04:25:36;;;;;;;8.70;4.60;;;15.70;61.60;;;;;;5076645;28;20520;-88
2022/01/01 04:28:04;;;;;;;8.57;4.93;;;15.60;61.20;;;;;;5092974;28;21097;-88
2022/01/01 04:30:31;;;;;;;11.07;5.97;;;15.60;61.10;;;;;;5083431;28;20451;-87
2022/01/01 04:32:58;;;;;;;7.37;5.70;;;15.70;60.80;;;;;;5066558;28;20477;-86
2022/01/01 04:35:26;;;;;;;7.13;5.03;;;15.70;60.60;;;;;;5090295;28;20487;-87
2022/01/01 04:37:54;;;;;;;5.73;5.10;;;15.80;60.20;;;;;;5075904;28;20470;-87
2022/01/01 04:40:21;;;;;;;7.07;4.97;;;15.80;59.70;;;;;;5079275;28;20459;-85
2022/01/01 04:42:48;;;;;;;8.60;5.70;;;15.80;59.50;;;;;;5076473;28;20533;-88
2022/01/01 04:45:15;;;;;;;7.77;5.63;;;15.80;59.50;;;;;;5075602;28;20466;-87
2022/01/01 04:47:42;;;;;;;7.73;5.30;;;15.70;59.50;;;;;;5075706;28;20462;-87
2022/01/01 04:50:09;;;;;;;7.30;5.40;;;15.70;59.50;;;;;;5092621;28;20957;-87
2022/01/01 04:52:36;;;;;;;9.33;5.60;;;15.60;59.30;;;;;;5060480;28;20442;-87
2022/01/01 04:55:06;;;;;;;10.23;5.63;;;15.60;59.40;;;;;;5077630;28;20532;-86
2022/01/01 04:57:33;;;;;;;8.30;4.47;;;15.50;59.30;;;;;;5094894;28;20813;-87
2022/01/01 05:00:00;;;;;;;10.33;5.17;;;15.50;59.60;;;;;;5077134;28;20451;-86
2022/01/01 05:02:27;;;;;;;8.67;4.53;;;15.50;59.50;;;;;;5099937;27;20473;-88
2022/01/01 05:04:54;;;;;;;8.83;4.60;;;15.50;59.50;;;;;;5097278;28;20459;-86
2022/01/01 05:07:21;;;;;;;6.70;5.13;;;15.60;59.50;;;;;;5097824;27;20508;-87
2022/01/01 05:09:48;;;;;;;5.97;4.70;;;15.60;59.60;;;;;;5096723;28;20821;-87
2022/01/01 05:12:16;;;;;;;7.03;4.90;;;15.60;59.70;;;;;;5097277;27;20475;-86
2022/01/01 05:14:44;;;;;;;6.53;4.77;;;15.70;59.70;;;;;;5077979;28;20489;-87
2022/01/01 05:17:12;;;;;;;7.33;5.50;;;15.60;59.60;;;;;;5078326;28;20898;-86
2022/01/01 05:19:39;;;;;;;10.20;5.07;;;15.60;59.80;;;;;;5063556;28;21107;-85
2022/01/01 05:22:06;;;;;;;7.07;4.90;;;15.70;60.00;;;;;;5075792;28;20507;-86
2022/01/01 05:24:33;;;;;;;6.57;4.23;;;15.70;60.00;;;;;;5078393;28;20459;-87
2022/01/01 05:27:00;;;;;;;7.30;5.00;;;15.80;60.10;;;;;;5079991;28;20997;-88
2022/01/01 05:29:28;;;;;;;6.03;3.73;;;15.80;59.90;;;;;;5078085;28;20832;-87
2022/01/01 05:31:55;;;;;;;5.77;5.13;;;15.80;59.90;;;;;;5079078;28;20459;-87
2022/01/01 05:34:22;;;;;;;4.63;4.13;;;15.80;59.90;;;;;;5095521;28;20501;-87
2022/01/01 05:36:50;;;;;;;7.60;4.50;;;15.80;60.00;;;;;;5079737;27;20488;-86
2022/01/01 05:39:17;;;;;;;5.53;4.07;;;15.70;60.30;;;;;;5079439;27;20447;-87
2022/01/01 05:41:44;;;;;;;6.13;4.40;;;15.70;60.30;;;;;;5076276;28;20871;-87
2022/01/01 05:44:11;;;;;;;5.60;4.50;;;15.60;60.50;;;;;;5065260;28;21394;-86
2022/01/01 05:46:39;;;;;;;6.70;3.90;;;15.50;60.60;;;;;;5080172;28;20469;-87
2022/01/01 05:49:06;;;;;;;6.40;5.27;;;15.40;60.90;;;;;;5093496;28;20492;-88
2022/01/01 05:51:33;;;;;;;7.40;5.40;;;15.30;61.30;;;;;;5080180;28;20462;-87
2022/01/01 05:54:00;;;;;;;9.43;4.80;;;15.20;61.40;;;;;;5096090;27;20466;-86
2022/01/01 05:56:27;;;;;;;8.87;5.37;;;15.20;61.60;;;;;;5078722;27;20478;-86
2022/01/01 05:58:54;;;;;;;6.93;5.70;;;15.10;61.60;;;;;;5075325;28;20997;-88
2022/01/01 06:01:21;;;;;;;11.17;6.30;;;15.00;62.00;;;;;;5062446;28;20491;-87
2022/01/01 06:03:49;;;;;;;6.47;4.80;;;15.00;62.00;;;;;;5077090;28;20467;-86
2022/01/01 06:06:16;;;;;;;7.47;5.10;;;15.00;62.10;;;;;;5090090;28;20475;-87
2022/01/01 06:08:43;;;;;;;5.73;4.37;;;15.20;61.90;;;;;;5097078;28;20458;-86
2022/01/01 06:11:10;;;;;;;9.07;4.90;;;15.30;61.50;;;;;;5099175;28;20451;-87
2022/01/01 06:13:37;;;;;;;5.37;4.87;;;15.20;61.40;;;;;;5095916;28;20502;-87
2022/01/01 06:16:04;;;;;;;5.50;4.30;;;15.10;61.80;;;;;;5080126;28;20477;-87
2022/01/01 06:18:31;;;;;;;7.30;5.30;;;15.10;61.90;;;;;;5096988;28;20479;-87
2022/01/01 06:20:59;;;;;;;6.17;4.70;;;15.20;61.50;;;;;;5096159;27;20454;-87
2022/01/01 06:23:26;;;;;;;7.40;4.70;;;15.00;61.90;;;;;;5062064;28;20517;-87
2022/01/01 06:25:53;;;;;;;5.93;4.50;;;15.10;62.00;;;;;;5095265;28;20498;-87
2022/01/01 06:28:20;;;;;;;7.47;4.47;;;15.00;62.00;;;;;;5056836;28;20444;-88
2022/01/01 06:30:47;;;;;;;6.63;5.23;;;15.20;62.00;;;;;;5095965;28;20575;-86
2022/01/01 06:33:15;;;;;;;6.80;4.73;;;15.10;61.70;;;;;;5097875;27;20455;-87
2022/01/01 06:35:43;;;;;;;7.57;4.83;;;15.20;61.90;;;;;;5092658;28;20478;-86
2022/01/01 06:38:12;;;;;;;6.20;4.23;;;15.20;61.30;;;;;;5095532;27;20486;-87
2022/01/01 06:40:41;;;;;;;5.63;4.57;;;15.30;61.50;;;;;;5078365;28;20448;-87
2022/01/01 06:43:09;;;;;;;9.23;4.97;;;15.40;60.70;;;;;;5076992;28;20452;-89
2022/01/01 06:45:36;;;;;;;5.20;4.30;;;15.50;60.60;;;;;;5095045;28;20580;-87
2022/01/01 06:48:03;;;;;;;7.10;4.50;;;15.20;61.20;;;;;;5083428;28;20466;-87
2022/01/01 06:50:31;;;;;;;6.57;4.80;;;15.20;61.60;;;;;;5077180;28;20469;-86
2022/01/01 06:52:57;;;;;;;6.77;4.33;;;15.30;61.20;;;;;;5095408;28;20453;-86
2022/01/01 06:55:26;;;;;;;4.40;3.60;;;15.30;61.00;;;;;;5093319;28;20483;-85
2022/01/01 06:57:53;;;;;;;6.10;4.10;;;15.40;61.20;;;;;;5094108;28;20985;-88
2022/01/01 07:00:20;;;;;;;11.90;5.33;;;15.40;61.00;;;;;;5094044;27;20462;-86
2022/01/01 07:02:48;;;;;;;6.77;4.57;;;15.40;60.70;;;;;;5061326;28;20476;-88
2022/01/01 07:05:16;;;;;;;5.53;3.60;;;15.40;60.70;;;;;;5083730;28;21244;-86
2022/01/01 07:07:43;;;;;;;6.33;4.20;;;15.50;60.50;;;;;;5092480;28;20446;-86
2022/01/01 07:10:12;;;;;;;4.87;4.37;;;15.40;60.50;;;;;;5079970;28;20451;-87
2022/01/01 07:12:41;;;;;;;6.13;4.70;;;15.50;60.60;;;;;;5094428;28;20463;-87
2022/01/01 07:15:10;;;;;;;8.40;4.53;;;15.60;60.60;;;;;;5091169;27;20548;-87
2022/01/01 07:17:37;;;;;;;4.53;3.60;;;15.50;60.50;;;;;;5070465;28;20488;-87
2022/01/01 07:20:04;;;;;;;5.47;4.17;;;15.30;60.80;;;;;;5077990;28;20459;-87
2022/01/01 07:22:31;;;;;;;5.67;3.63;;;15.20;60.90;;;;;;5078287;28;20459;-86
2022/01/01 07:24:58;;;;;;;9.57;5.60;;;15.20;61.20;;;;;;5077468;28;20446;-86
2022/01/01 07:27:25;;;;;;;6.80;4.50;;;15.30;60.90;;;;;;5061216;28;21005;-87
2022/01/01 07:29:53;;;;;;;8.60;5.80;;;15.00;61.60;;;;;;5074444;28;20545;-86
2022/01/01 07:32:20;;;;;;;8.60;5.30;;;15.10;61.70;;;;;;5076979;28;20447;-86
2022/01/01 07:34:47;;;;;;;8.07;4.13;;;15.20;61.50;;;;;;5078355;28;20451;-88
2022/01/01 07:37:14;;;;;;;5.87;4.83;;;15.00;61.20;;;;;;5073101;28;20576;-87
2022/01/01 07:39:41;;;;;;;6.20;4.57;;;15.10;61.50;;;;;;5058034;28;20458;-87
2022/01/01 07:42:08;;;;;;;5.23;4.37;;;15.20;61.30;;;;;;5096409;28;20946;-87
2022/01/01 07:44:35;;;;;;;7.60;5.20;;;15.30;61.10;;;;;;5075283;28;20460;-88
2022/01/01 07:47:04;;;;;;;7.00;5.30;;;15.30;60.90;;;;;;5090194;28;20472;-85
2022/01/01 07:49:31;;;;;;;5.30;4.37;;;15.30;60.70;;;;;;5091498;27;20459;-86
2022/01/01 07:51:58;;;;;;;14.20;11.97;;;15.30;60.90;;;;;;5095308;28;20450;-87
2022/01/01 07:54:25;;;;;;;20.87;14.47;;;15.40;60.80;;;;;;5094184;28;20913;-87
2022/01/01 07:56:52;;;;;;;11.90;10.17;;;15.60;60.60;;;;;;5093081;28;20544;-88
2022/01/01 07:59:19;;;;;;;8.57;6.57;;;15.70;60.00;;;;;;5091012;28;20977;-86
2022/01/01 08:01:45;;;;;;;10.77;6.43;;;15.60;60.10;;;;;;5078204;28;20452;-87
2022/01/01 08:04:14;;;;;;;7.90;6.50;;;15.60;60.30;;;;;;5093487;28;20447;-87
2022/01/01 08:06:41;;;;;;;9.03;7.10;;;15.60;60.40;;;;;;5092744;28;20490;-88
2022/01/01 08:09:07;;;;;;;10.27;6.40;;;15.60;60.40;;;;;;5074755;28;20469;-89
2022/01/01 08:11:35;;;;;;;9.17;7.33;;;15.70;60.50;;;;;;5074930;28;20477;-88
2022/01/01 08:14:02;;;;;;;5.70;5.10;;;15.80;60.30;;;;;;5089264;28;20450;-87
2022/01/01 08:16:29;;;;;;;7.90;4.70;;;15.90;59.80;;;;;;5095007;28;20505;-88
2022/01/01 08:18:56;;;;;;;9.10;5.50;;;16.00;59.70;;;;;;5091092;28;20904;-88
2022/01/01 08:21:24;;;;;;;7.03;5.20;;;16.00;59.70;;;;;;5092453;28;20455;-87
2022/01/01 08:23:51;;;;;;;9.20;5.90;;;16.00;60.30;;;;;;5078139;28;21127;-88
2022/01/01 08:26:18;;;;;;;18.20;12.20;;;15.90;59.50;;;;;;5073179;28;20479;-87
2022/01/01 08:28:45;;;;;;;14.43;10.10;;;15.70;60.10;;;;;;5057319;28;20451;-87
2022/01/01 08:31:11;;;;;;;22.67;13.63;;;15.50;60.40;;;;;;5093696;28;21019;-87
2022/01/01 08:33:38;;;;;;;26.23;13.20;;;15.30;60.90;;;;;;5095460;28;20973;-87
2022/01/01 08:36:05;;;;;;;7.23;4.80;;;15.50;61.50;;;;;;5091382;28;20466;-87
2022/01/01 08:38:34;;;;;;;13.83;9.60;;;15.20;61.50;;;;;;5076930;28;20469;-89
2022/01/01 08:41:01;;;;;;;9.50;7.60;;;15.40;61.50;;;;;;5095839;28;20451;-87
2022/01/01 08:43:28;;;;;;;12.40;6.07;;;15.60;61.40;;;;;;5073048;28;20459;-88
2022/01/01 08:45:54;;;;;;;6.50;5.43;;;15.70;60.90;;;;;;5094900;28;20475;-88
2022/01/01 08:48:21;;;;;;;5.97;4.90;;;15.70;61.00;;;;;;5089866;28;20458;-87
2022/01/01 08:50:48;;;;;;;5.70;5.00;;;15.80;60.90;;;;;;5059680;28;20448;-87
2022/01/01 08:53:16;;;;;;;6.67;4.60;;;15.90;60.80;;;;;;5094581;28;20448;-88
2022/01/01 08:55:44;;;;;;;4.80;4.30;;;16.00;60.50;;;;;;5078753;28;20559;-88
2022/01/01 08:58:11;;;;;;;7.83;4.57;;;15.90;60.20;;;;;;5072604;28;20462;-88
2022/01/01 09:00:38;;;;;;;5.47;4.83;;;16.00;60.40;;;;;;5093189;28;20462;-87
2022/01/01 09:03:05;;;;;;;6.73;4.83;;;16.00;60.20;;;;;;5076157;28;20455;-89
2022/01/01 09:05:32;;;;;;;4.70;4.10;;;16.10;60.00;;;;;;5061092;28;20871;-88
2022/01/01 09:07:59;;;;;;;15.30;11.63;;;16.00;60.20;;;;;;5082878;28;20452;-89
2022/01/01 09:10:26;;;;;;;13.70;9.00;;;15.90;60.20;;;;;;5084620;28;20452;-87
2022/01/01 09:12:55;;;;;;;8.30;7.17;;;16.00;60.40;;;;;;5061803;28;20456;-90
2022/01/01 09:15:21;;;;;;;8.53;5.30;;;15.90;60.30;;;;;;5088239;28;20480;-90
2022/01/01 09:17:48;;;;;;;7.27;5.30;;;15.90;60.50;;;;;;5088603;28;20954;-87
2022/01/01 09:20:15;;;;;;;10.73;6.60;;;15.90;60.50;;;;;;5088697;28;20447;-87
2022/01/01 09:22:42;;;;;;;9.23;7.50;;;15.80;60.90;;;;;;5068505;28;20798;-88
2022/01/01 09:25:09;;;;;;;6.20;5.43;;;15.70;61.10;;;;;;5055484;28;20723;-87
2022/01/01 09:27:36;;;;;;;7.23;4.63;;;15.50;61.50;;;;;;5068089;28;20470;-88
2022/01/01 09:30:06;;;;;;;4.83;4.27;;;15.60;61.50;;;;;;5071124;28;20454;-87
2022/01/01 09:32:34;;;;;;;6.43;5.93;;;15.60;61.30;;;;;;5089818;28;20459;-88
2022/01/01 09:35:02;;;;;;;7.80;4.30;;;15.70;61.30;;;;;;5090287;28;20731;-87
2022/01/01 09:37:32;;;;;;;9.60;4.40;;;15.80;61.10;;;;;;5089459;28;20558;-88
2022/01/01 09:39:59;;;;;;;7.13;4.60;;;15.90;60.80;;;;;;5058606;28;20468;-90
2022/01/01 09:42:27;;;;;;;7.50;5.07;;;15.80;60.70;;;;;;5065614;28;20465;-90
2022/01/01 09:44:54;;;;;;;7.40;4.60;;;15.70;60.90;;;;;;5074276;28;20463;-87
2022/01/01 09:47:23;;;;;;;5.63;3.90;;;15.70;60.80;;;;;;5067437;28;20493;-88
2022/01/01 09:49:50;;;;;;;6.60;4.60;;;15.80;60.90;;;;;;5076574;28;20463;-89
2022/01/01 09:52:17;;;;;;;4.80;4.30;;;16.00;60.50;;;;;;5057181;28;20451;-89
2022/01/01 09:54:44;;;;;;;9.70;4.93;;;16.10;60.00;;;;;;5082479;28;20570;-89
2022/01/01 09:57:12;;;;;;;5.10;4.23;;;16.20;59.70;;;;;;5077232;28;20511;-87
2022/01/01 09:59:39;;;;;;;6.77;5.30;;;16.30;59.40;;;;;;5092033;28;20458;-88
2022/01/01 10:02:06;;;;;;;8.93;5.60;;;16.40;59.20;;;;;;5046704;28;20458;-88
2022/01/01 10:04:43;;;;;;;13.70;6.03;;;16.50;59.20;;;;;;5077039;28;20462;-87
2022/01/01 10:07:11;;;;;;;5.10;4.70;;;16.50;58.90;;;;;;5072529;28;20494;-86
2022/01/01 10:09:38;;;;;;;6.87;4.93;;;16.40;59.00;;;;;;5094010;27;20466;-86
2022/01/01 10:12:09;;;;;;;6.20;4.90;;;16.40;59.30;;;;;;5073804;27;20466;-86
2022/01/01 10:14:38;;;;;;;5.20;4.53;;;16.30;59.20;;;;;;5092521;27;20470;-87
2022/01/01 10:17:18;;;;;;;5.20;4.70;;;16.50;59.10;;;;;;5094465;28;20568;-88
2022/01/01 10:19:48;;;;;;;8.77;6.03;;;16.50;58.80;;;;;;5075230;28;20500;-88
2022/01/01 10:22:18;;;;;;;6.43;4.13;;;16.60;58.90;;;;;;5055677;28;20482;-88
2022/01/01 10:27:45;;;;;;;5.53;3.83;;;16.30;59.10;;;;;;5081977;28;20447;-87
2022/01/01 10:30:21;;;;;;;6.50;4.03;;;16.40;59.20;;;;;;5074166;28;20487;-87
2022/01/01 10:33:02;;;;;;;5.60;4.10;;;16.50;59.10;;;;;;5060003;28;20443;-88
2022/01/01 10:35:35;;;;;;;4.40;4.00;;;16.70;58.80;;;;;;5076212;28;20485;-88
2022/01/01 10:38:04;;;;;;;5.87;4.00;;;16.70;58.50;;;;;;5090249;27;20535;-88
2022/01/01 10:40:31;;;;;;;7.23;4.80;;;16.90;58.60;;;;;;5076809;28;20535;-87
2022/01/01 10:42:58;;;;;;;9.60;4.10;;;16.80;58.50;;;;;;5059048;28;20436;-89
2022/01/01 10:45:36;;;;;;;5.57;3.50;;;16.80;58.30;;;;;;5066024;28;20471;-89
2022/01/01 10:48:22;;;;;;;3.83;3.50;;;16.70;58.60;;;;;;5080359;28;20454;-89
2022/01/01 10:50:52;;;;;;;4.70;3.73;;;16.60;58.40;;;;;;5062483;28;20447;-88
2022/01/01 10:53:25;;;;;;;4.23;3.60;;;16.80;58.10;;;;;;5078001;28;21350;-89
2022/01/01 10:55:54;;;;;;;4.87;3.20;;;16.80;58.70;;;;;;5091745;28;20490;-87
2022/01/01 10:58:22;;;;;;;4.97;3.80;;;16.90;58.50;;;;;;5091376;28;20446;-85
2022/01/01 11:00:50;;;;;;;5.77;4.67;;;16.70;58.50;;;;;;5094394;28;20458;-90
2022/01/01 11:03:18;;;;;;;5.27;3.70;;;16.70;58.20;;;;;;5044489;28;20451;-87
2022/01/01 11:05:47;;;;;;;4.63;3.33;;;16.80;58.90;;;;;;5074884;28;20470;-89
2022/01/01 11:08:15;;;;;;;6.00;4.90;;;17.00;58.70;;;;;;5077999;28;20463;-89
2022/01/01 11:10:43;;;;;;;5.80;3.90;;;17.10;58.30;;;;;;5091670;28;20506;-87
2022/01/01 11:13:11;;;;;;;8.10;4.43;;;17.20;58.20;;;;;;5053577;28;20831;-88
2022/01/01 11:15:38;;;;;;;5.93;3.83;;;17.10;57.40;;;;;;5092573;27;20463;-87
2022/01/01 11:18:06;;;;;;;6.53;4.43;;;17.20;57.60;;;;;;5064010;28;21168;-87
2022/01/01 11:20:34;;;;;;;6.33;3.37;;;17.40;57.70;;;;;;5092115;28;21221;-86
2022/01/01 11:23:07;;;;;;;7.67;3.80;;;17.50;56.70;;;;;;5075588;28;20523;-87
2022/01/01 11:25:37;;;;;;;4.33;3.20;;;17.70;57.10;;;;;;5064688;28;20477;-86
2022/01/01 11:28:08;;;;;;;4.40;3.37;;;17.60;56.40;;;;;;5096634;27;20456;-87
2022/01/01 11:30:37;;;;;;;6.63;3.70;;;17.40;56.10;;;;;;5075457;28;20503;-88
2022/01/01 11:33:07;;;;;;;7.23;3.90;;;17.30;57.10;;;;;;5075077;28;20453;-86
2022/01/01 11:35:36;;;;;;;4.80;3.77;;;17.40;56.40;;;;;;5065897;28;20498;-88
2022/01/01 11:38:05;;;;;;;8.23;4.00;;;17.40;56.70;;;;;;5093592;28;20481;-87
2022/01/01 11:40:42;;;;;;;10.60;7.53;;;17.50;56.80;;;;;;5091056;28;20973;-87
2022/01/01 11:43:33;;;;;;;8.37;6.30;;;17.70;56.50;;;;;;5084419;28;20486;-88
2022/01/01 11:46:01;;;;;;;8.60;7.63;;;17.70;56.10;;;;;;5059008;28;20460;-87
2022/01/01 11:48:33;;;;;;;5.60;4.10;;;17.90;56.00;;;;;;5076689;28;20458;-87
2022/01/01 11:51:26;;;;;;;4.37;3.87;;;18.00;55.90;;;;;;5049514;28;20447;-88
2022/01/01 11:54:11;;;;;;;5.13;4.20;;;18.00;55.60;;;;;;5058231;28;20477;-87
2022/01/01 11:57:00;;;;;;;33.87;18.57;;;18.00;55.80;;;;;;5095233;28;21293;-87
2022/01/01 11:59:29;;;;;;;9.83;6.70;;;17.80;55.90;;;;;;5095176;28;20447;-88
2022/01/01 12:01:58;;;;;;;8.67;5.00;;;17.90;56.20;;;;;;5064469;28;20455;-87
2022/01/01 12:04:31;;;;;;;7.53;4.77;;;18.00;56.10;;;;;;5078040;28;20850;-88
2022/01/01 12:07:00;;;;;;;10.10;3.73;;;17.90;54.90;;;;;;5093477;28;21131;-86
2022/01/01 12:09:27;;;;;;;8.40;3.87;;;17.90;55.50;;;;;;5074215;28;20452;-89
2022/01/01 12:11:58;;;;;;;5.37;4.03;;;17.90;55.80;;;;;;5062825;28;20458;-87
2022/01/01 12:14:26;;;;;;;4.60;4.20;;;17.80;55.40;;;;;;5058177;28;20487;-88
2022/01/01 12:16:54;;;;;;;6.33;3.77;;;17.90;56.10;;;;;;5091645;28;20479;-87
2022/01/01 12:19:23;;;;;;;6.07;4.30;;;18.00;56.10;;;;;;5072558;28;21015;-86
2022/01/01 12:22:03;;;;;;;7.70;3.87;;;17.70;55.70;;;;;;5077636;28;20463;-88
2022/01/01 12:24:35;;;;;;;4.50;3.63;;;17.60;57.10;;;;;;5075724;28;20470;-89
2022/01/01 12:27:10;;;;;;;5.90;4.70;;;17.70;56.70;;;;;;5092177;28;20537;-87
2022/01/01 12:29:37;;;;;;;4.27;3.63;;;17.90;57.30;;;;;;5081580;28;20454;-87
2022/01/01 12:32:07;;;;;;;8.73;3.87;;;18.00;56.20;;;;;;5093477;28;21060;-87
2022/01/01 12:34:36;;;;;;;12.00;10.80;;;18.10;56.20;;;;;;5077812;28;20459;-87
2022/01/01 12:37:06;;;;;;;5.50;4.60;;;17.80;55.50;;;;;;5076006;28;20573;-89
2022/01/01 12:39:57;;;;;;;4.23;3.70;;;17.80;56.70;;;;;;5094950;28;20482;-86
2022/01/01 12:42:31;;;;;;;5.07;4.00;;;17.90;56.80;;;;;;5091051;28;20466;-87
2022/01/01 12:45:03;;;;;;;5.80;4.10;;;18.10;57.10;;;;;;5078874;28;20446;-86
2022/01/01 12:47:31;;;;;;;7.17;4.80;;;18.20;56.50;;;;;;5093854;28;20765;-87
2022/01/01 12:49:59;;;;;;;6.53;3.90;;;18.20;56.10;;;;;;5074227;28;20946;-88
2022/01/01 12:52:27;;;;;;;4.10;3.50;;;18.20;55.90;;;;;;5077241;28;20469;-88
2022/01/01 12:54:57;;;;;;;4.80;4.13;;;18.30;56.10;;;;;;5096154;28;20463;-88